Time;durP1;ratioP1;P1;durP2;ratioP2;P2;SDS_P1;SDS_P2;PMS_P1;PMS_P2;Temp;Humidity;BMP_temperature;BMP_pressure;BME280_temperature;BME280_humidity;BME280_pressure;Samples;Min_cycle;Max_cycle;Signal;HPM_P1;HPM_P2
2023/02/27 00:02:12;;;;;;;7.22;3.92;;;-0.10;99.90;;;;;;7372383;19;20365;-61
2023/02/27 00:04:39;;;;;;;9.65;4.10;;;-0.10;99.90;;;;;;7369576;19;20114;-61
2023/02/27 00:07:06;;;;;;;9.85;4.05;;;-0.10;99.90;;;;;;7370473;19;20014;-61
2023/02/27 00:09:32;;;;;;;10.25;4.35;;;-0.20;99.90;;;;;;7367350;19;20018;-61
2023/02/27 00:11:59;;;;;;;9.07;4.85;;;-0.20;99.90;;;;;;7372156;19;20019;-60
2023/02/27 00:14:26;;;;;;;13.93;6.10;;;-0.30;99.90;;;;;;7369460;19;20572;-65
2023/02/27 00:16:52;;;;;;;15.15;6.63;;;-0.30;99.90;;;;;;7373243;19;20050;-61
2023/02/27 00:19:20;;;;;;;11.75;5.60;;;-0.30;99.90;;;;;;7371574;19;20885;-60
2023/02/27 00:21:46;;;;;;;10.65;5.22;;;-0.40;99.90;;;;;;7368510;19;20019;-60
2023/02/27 00:24:14;;;;;;;12.18;5.22;;;-0.40;99.90;;;;;;7369938;19;20026;-60
2023/02/27 00:26:40;;;;;;;8.75;4.40;;;-0.40;99.90;;;;;;7372503;19;20015;-60
2023/02/27 00:29:06;;;;;;;14.00;5.70;;;-0.50;99.90;;;;;;7368157;19;20014;-65
2023/02/27 00:31:39;;;;;;;8.15;3.63;;;-0.40;99.90;;;;;;7368801;19;20028;-65
2023/02/27 00:34:05;;;;;;;10.50;4.15;;;-0.40;99.90;;;;;;7370676;19;20018;-61
2023/02/27 00:36:32;;;;;;;9.02;3.85;;;-0.50;99.90;;;;;;7372099;19;20145;-60
2023/02/27 00:39:02;;;;;;;9.30;4.13;;;-0.50;99.90;;;;;;7373189;19;20363;-60
2023/02/27 00:41:28;;;;;;;8.20;3.47;;;-0.50;99.90;;;;;;7372276;19;20021;-60
2023/02/27 00:43:54;;;;;;;12.80;4.10;;;-0.50;99.90;;;;;;7370365;19;20024;-65
2023/02/27 00:46:21;;;;;;;8.85;2.95;;;-0.60;99.90;;;;;;7373132;19;20447;-65
2023/02/27 00:48:50;;;;;;;8.27;3.20;;;-0.50;99.90;;;;;;7370358;19;20639;-65
2023/02/27 00:51:19;;;;;;;8.18;3.03;;;-0.50;99.90;;;;;;7371515;19;20015;-65
2023/02/27 00:53:46;;;;;;;8.65;3.28;;;-0.60;99.90;;;;;;7369809;19;20624;-61
2023/02/27 00:56:13;;;;;;;4.60;3.05;;;-0.60;99.90;;;;;;7372380;19;20055;-60
2023/02/27 00:58:39;;;;;;;7.45;3.15;;;-0.60;99.90;;;;;;7372155;19;20020;-61
2023/02/27 01:01:06;;;;;;;7.82;2.83;;;-0.60;99.90;;;;;;7378113;19;20067;-60
2023/02/27 01:03:32;;;;;;;7.30;2.83;;;-0.60;99.90;;;;;;7378671;19;20086;-60
2023/02/27 01:05:59;;;;;;;8.57;3.35;;;-0.70;99.90;;;;;;7377945;19;20048;-60
2023/02/27 01:08:25;;;;;;;7.63;3.42;;;-0.70;99.90;;;;;;7374683;19;20018;-60
2023/02/27 01:10:55;;;;;;;9.80;3.78;;;-0.70;99.90;;;;;;7376123;19;20031;-60
2023/02/27 01:13:22;;;;;;;11.95;3.92;;;-0.70;99.90;;;;;;7378667;19;20102;-60
2023/02/27 01:15:48;;;;;;;9.60;3.63;;;-0.80;99.90;;;;;;7379876;19;20018;-60
2023/02/27 01:18:15;;;;;;;8.02;3.50;;;-0.80;99.90;;;;;;7376961;19;20584;-60
2023/02/27 01:20:41;;;;;;;9.02;3.35;;;-0.90;99.90;;;;;;7376750;19;20019;-60
2023/02/27 01:23:08;;;;;;;6.28;2.88;;;-0.90;99.90;;;;;;7372471;19;20074;-60
2023/02/27 01:25:34;;;;;;;8.75;3.20;;;-0.90;99.90;;;;;;7376161;19;20078;-65
2023/02/27 01:28:01;;;;;;;8.00;3.00;;;-0.90;99.90;;;;;;7377623;19;20015;-65
2023/02/27 01:30:27;;;;;;;7.50;2.95;;;-1.00;99.90;;;;;;7375162;19;20090;-60
2023/02/27 01:32:54;;;;;;;7.10;2.60;;;-1.00;99.90;;;;;;7373677;19;20094;-60
2023/02/27 01:35:20;;;;;;;6.72;2.72;;;-1.00;99.90;;;;;;7373871;19;20030;-60
2023/02/27 01:37:49;;;;;;;5.80;2.20;;;-1.10;99.90;;;;;;7374637;19;20048;-60
2023/02/27 01:40:16;;;;;;;4.53;2.22;;;-1.10;99.90;;;;;;7370720;19;20018;-60
2023/02/27 01:42:42;;;;;;;7.45;2.30;;;-1.10;99.90;;;;;;7373302;19;20090;-60
2023/02/27 01:45:10;;;;;;;9.82;2.75;;;-1.10;99.90;;;;;;7374013;19;20580;-60
2023/02/27 01:47:49;;;;;;;6.90;2.55;;;-1.10;99.90;;;;;;7375452;19;20056;-60
2023/02/27 01:50:18;;;;;;;6.55;2.38;;;-1.10;99.90;;;;;;7376291;19;20023;-60
2023/02/27 01:52:48;;;;;;;7.07;2.00;;;-1.10;99.90;;;;;;7369639;19;20093;-60
2023/02/27 01:55:16;;;;;;;5.28;2.38;;;-1.20;99.90;;;;;;7373020;19;20039;-60
2023/02/27 01:57:45;;;;;;;5.53;2.95;;;-1.20;99.90;;;;;;7369773;19;20014;-60
2023/02/27 02:00:12;;;;;;;8.75;2.63;;;-1.20;99.90;;;;;;7373452;19;20018;-60
2023/02/27 02:02:43;;;;;;;8.75;2.95;;;-1.20;99.90;;;;;;7373309;19;20109;-60
2023/02/27 02:05:10;;;;;;;5.03;2.33;;;-1.20;99.90;;;;;;7373454;19;20033;-60
2023/02/27 02:07:38;;;;;;;6.88;2.53;;;-1.20;99.90;;;;;;7373920;19;20656;-60
2023/02/27 02:10:06;;;;;;;8.27;2.67;;;-1.20;99.90;;;;;;7375149;19;20405;-65
2023/02/27 02:12:36;;;;;;;5.35;2.45;;;-1.20;99.90;;;;;;7373046;19;20286;-60
2023/02/27 02:15:04;;;;;;;6.03;2.47;;;-1.20;99.90;;;;;;7373669;19;20077;-62
2023/02/27 02:18:12;;;;;;;9.52;2.90;;;-1.20;99.90;;;;;;7371607;19;20015;-64
2023/02/27 02:21:21;;;;;;;6.32;3.25;;;-1.30;99.90;;;;;;7374179;19;20473;-65
2023/02/27 02:24:05;;;;;;;7.00;2.83;;;-1.40;99.90;;;;;;7374016;19;20018;-64
2023/02/27 02:26:52;;;;;;;7.28;2.85;;;-1.40;99.90;;;;;;7374745;19;20015;-64
2023/02/27 02:29:43;;;;;;;6.40;2.75;;;-1.40;99.90;;;;;;7372399;19;20014;-64
2023/02/27 02:32:47;;;;;;;6.40;3.42;;;-1.40;99.90;;;;;;7373411;19;20018;-64
2023/02/27 02:35:40;;;;;;;6.82;3.70;;;-1.40;99.90;;;;;;7372499;19;20011;-64
2023/02/27 02:38:19;;;;;;;7.30;3.47;;;-1.40;99.90;;;;;;7374513;19;20014;-60
2023/02/27 02:41:16;;;;;;;7.15;3.13;;;-1.40;99.90;;;;;;7373075;19;20028;-60
2023/02/27 02:43:48;;;;;;;;;;;-1.50;99.90;;;;;;7371972;19;20662;-64
2023/02/27 02:46:31;;;;;;;8.00;3.78;;;-1.50;99.90;;;;;;7374765;19;19918;-64
2023/02/27 02:49:13;;;;;;;9.13;3.80;;;-1.50;99.90;;;;;;7369813;19;20019;-64
2023/02/27 02:51:54;;;;;;;9.20;4.20;;;-1.50;99.90;;;;;;7368483;19;20025;-64
2023/02/27 02:54:37;;;;;;;8.23;3.60;;;-1.50;99.90;;;;;;7375149;19;20029;-64
2023/02/27 02:57:24;;;;;;;9.25;4.15;;;-1.50;99.90;;;;;;7369605;19;20868;-64
2023/02/27 03:00:06;;;;;;;6.40;3.70;;;-1.60;99.90;;;;;;7367564;19;20022;-64
2023/02/27 03:02:42;;;;;;;9.00;4.72;;;-1.50;99.90;;;;;;7372723;19;20563;-64
2023/02/27 03:05:16;;;;;;;6.05;3.50;;;-1.60;99.90;;;;;;7373155;19;20010;-64
2023/02/27 03:07:52;;;;;;;10.40;3.85;;;-1.60;99.90;;;;;;7369938;19;20022;-64
2023/02/27 03:10:31;;;;;;;8.05;3.88;;;-1.60;99.90;;;;;;7373615;19;20014;-64
2023/02/27 03:13:04;;;;;;;7.30;3.30;;;-1.60;99.90;;;;;;7369179;19;20553;-64
2023/02/27 03:15:42;;;;;;;8.32;4.18;;;-1.60;99.90;;;;;;7371786;19;20018;-63
2023/02/27 03:18:19;;;;;;;7.68;3.95;;;-1.70;99.90;;;;;;7369948;19;20029;-64
2023/02/27 03:21:00;;;;;;;8.02;4.13;;;-1.60;99.90;;;;;;7372189;19;20791;-59
2023/02/27 03:23:33;;;;;;;12.73;4.25;;;-1.70;99.90;;;;;;7365344;19;20715;-64
2023/02/27 03:25:59;;;;;;;9.10;5.28;;;-1.80;99.90;;;;;;7371463;19;20020;-64
2023/02/27 03:28:31;;;;;;;11.73;4.75;;;-1.80;99.90;;;;;;7370643;19;20021;-63
2023/02/27 03:31:24;;;;;;;7.63;4.75;;;-1.80;99.90;;;;;;7369906;19;20050;-63
2023/02/27 03:34:01;;;;;;;8.73;4.05;;;-1.80;99.90;;;;;;7371534;19;20098;-64
2023/02/27 03:36:36;;;;;;;9.38;4.47;;;-1.80;99.90;;;;;;7372698;19;20022;-63
2023/02/27 03:39:10;;;;;;;9.80;5.10;;;-1.80;99.90;;;;;;7371185;19;20014;-64
2023/02/27 03:41:56;;;;;;;8.15;4.45;;;-1.80;99.90;;;;;;7371344;19;20022;-63
2023/02/27 03:44:59;;;;;;;8.35;4.28;;;-1.90;99.90;;;;;;7368288;19;20094;-64
2023/02/27 03:47:27;;;;;;;8.98;4.88;;;-1.90;99.90;;;;;;7369839;19;20016;-63
2023/02/27 03:49:54;;;;;;;10.57;4.50;;;-1.90;99.90;;;;;;7368987;19;20022;-64
2023/02/27 03:52:24;;;;;;;8.88;3.83;;;-1.90;99.90;;;;;;7370270;19;20024;-63
2023/02/27 03:55:18;;;;;;;7.95;4.38;;;-2.00;99.90;;;;;;7372317;19;20018;-65
2023/02/27 03:57:46;;;;;;;9.65;4.25;;;-1.90;99.90;;;;;;7368429;19;20022;-63
2023/02/27 04:00:17;;;;;;;6.55;4.00;;;-2.00;99.90;;;;;;7371096;19;20110;-65
2023/02/27 04:02:46;;;;;;;7.70;3.90;;;-2.00;99.90;;;;;;7371365;19;20810;-63
2023/02/27 04:05:16;;;;;;;8.07;4.63;;;-2.00;99.90;;;;;;7371565;19;20014;-63
2023/02/27 04:08:15;;;;;;;7.97;3.80;;;-2.00;99.90;;;;;;7371153;19;20041;-63
2023/02/27 04:10:57;;;;;;;7.47;4.45;;;-2.10;99.90;;;;;;7368867;19;20023;-63
2023/02/27 04:13:41;;;;;;;8.93;4.50;;;-2.00;99.90;;;;;;7373166;19;20051;-63
2023/02/27 04:16:35;;;;;;;7.25;4.40;;;-2.10;99.90;;;;;;7369399;19;20021;-63
2023/02/27 04:19:33;;;;;;;10.52;4.82;;;-2.00;99.90;;;;;;7367990;19;20015;-64
2023/02/27 04:22:24;;;;;;;10.75;4.57;;;-2.10;99.90;;;;;;7368945;19;20015;-64
2023/02/27 04:25:15;;;;;;;9.60;4.57;;;-2.10;99.90;;;;;;7369857;19;20010;-64
2023/02/27 04:28:03;;;;;;;7.97;4.35;;;-2.10;99.90;;;;;;7371298;19;20015;-64
2023/02/27 04:30:56;;;;;;;10.75;4.85;;;-2.10;99.90;;;;;;7366929;19;20025;-63
2023/02/27 04:33:35;;;;;;;7.22;4.38;;;-2.20;99.90;;;;;;7369838;19;20014;-63
2023/02/27 04:36:23;;;;;;;10.13;4.05;;;-2.20;99.90;;;;;;7376707;19;20648;-63
2023/02/27 04:39:20;;;;;;;6.22;4.10;;;-2.20;99.90;;;;;;7378203;19;20038;-63
2023/02/27 04:41:50;;;;;;;8.48;4.82;;;-2.20;99.90;;;;;;7378015;19;20154;-63
2023/02/27 04:44:19;;;;;;;7.75;4.30;;;-2.30;99.90;;;;;;7378906;19;20482;-63
2023/02/27 04:46:47;;;;;;;9.32;4.45;;;-2.20;99.90;;;;;;7377881;19;20021;-64
2023/02/27 04:49:21;;;;;;;10.55;4.95;;;-2.30;99.90;;;;;;7376528;19;20525;-63
2023/02/27 04:52:04;;;;;;;7.07;5.18;;;-2.20;99.90;;;;;;7379137;19;20029;-63
2023/02/27 04:54:38;;;;;;;10.70;4.82;;;-2.20;99.90;;;;;;7377038;19;20101;-63
2023/02/27 04:57:09;;;;;;;11.27;5.13;;;-2.20;99.90;;;;;;7375564;19;20386;-63
2023/02/27 04:59:42;;;;;;;8.68;5.10;;;-2.30;99.90;;;;;;7374342;19;20044;-63
2023/02/27 05:02:12;;;;;;;7.88;4.80;;;-2.30;99.90;;;;;;7377419;19;20022;-63
2023/02/27 05:04:42;;;;;;;10.82;4.55;;;-2.30;99.90;;;;;;7375935;19;20018;-63
2023/02/27 05:07:16;;;;;;;9.40;4.72;;;-2.30;99.90;;;;;;7373138;19;20048;-63
2023/02/27 05:09:52;;;;;;;9.85;5.18;;;-2.30;99.90;;;;;;7371836;19;20024;-63
2023/02/27 05:12:27;;;;;;;6.80;4.60;;;-2.20;99.90;;;;;;7377656;19;20018;-60
2023/02/27 05:15:12;;;;;;;7.25;4.47;;;-2.30;99.90;;;;;;7376854;19;20774;-61
2023/02/27 05:17:45;;;;;;;7.30;4.50;;;-2.30;99.90;;;;;;7376556;19;20050;-61
2023/02/27 05:20:13;;;;;;;11.43;5.45;;;-2.30;99.90;;;;;;7375483;19;20017;-61
2023/02/27 05:22:56;;;;;;;9.20;4.90;;;-2.30;99.90;;;;;;7378496;19;20089;-61
2023/02/27 05:25:38;;;;;;;;;;;-2.40;99.90;;;;;;7374402;19;20026;-61
2023/02/27 05:28:12;;;;;;;;;;;-2.40;99.90;;;;;;7371611;19;19952;-61
2023/02/27 05:31:17;;;;;;;9.07;4.93;;;-2.40;99.90;;;;;;7373457;19;20330;-61
2023/02/27 05:33:54;;;;;;;6.80;4.22;;;-2.40;99.90;;;;;;7373470;19;20018;-60
2023/02/27 05:36:28;;;;;;;7.85;4.30;;;-2.40;99.90;;;;;;7377846;19;20035;-61
2023/02/27 05:38:59;;;;;;;7.93;4.03;;;-2.40;99.90;;;;;;7373236;19;20014;-61
2023/02/27 05:41:45;;;;;;;5.32;4.20;;;-2.40;99.90;;;;;;7372568;19;20031;-61
2023/02/27 05:44:17;;;;;;;6.95;4.25;;;-2.40;99.90;;;;;;7374328;19;20029;-60
2023/02/27 05:46:55;;;;;;;9.73;4.43;;;-2.40;99.90;;;;;;7371722;19;20047;-60
2023/02/27 05:49:26;;;;;;;11.15;4.75;;;-2.40;99.90;;;;;;7375190;19;20983;-60
2023/02/27 05:51:56;;;;;;;9.18;4.55;;;-2.40;99.90;;;;;;7374067;19;20115;-60
2023/02/27 05:54:35;;;;;;;5.15;4.07;;;-2.40;99.90;;;;;;7374990;19;20022;-64
2023/02/27 05:57:06;;;;;;;8.18;4.25;;;-2.40;99.90;;;;;;7371800;19;20018;-63
2023/02/27 05:59:42;;;;;;;7.55;3.85;;;-2.40;99.90;;;;;;7376822;19;20101;-65
2023/02/27 06:02:10;;;;;;;10.20;4.65;;;-2.40;99.90;;;;;;7371981;19;20010;-63
2023/02/27 06:04:37;;;;;;;8.50;4.18;;;-2.50;99.90;;;;;;7372338;19;20014;-62
2023/02/27 06:07:04;;;;;;;9.23;4.32;;;-2.50;99.90;;;;;;7371719;19;20025;-64
2023/02/27 06:09:32;;;;;;;8.30;4.47;;;-2.50;99.90;;;;;;7369024;19;20019;-64
2023/02/27 06:12:00;;;;;;;6.97;4.53;;;-2.40;99.90;;;;;;7374588;19;20025;-63
2023/02/27 06:14:27;;;;;;;9.27;4.28;;;-2.40;99.90;;;;;;7371999;19;20101;-64
2023/02/27 06:16:53;;;;;;;7.72;4.35;;;-2.30;99.90;;;;;;7375290;19;20019;-64
2023/02/27 06:19:19;;;;;;;9.35;4.68;;;-2.30;99.90;;;;;;7372798;19;20090;-64
2023/02/27 06:21:49;;;;;;;10.38;4.22;;;-2.30;99.90;;;;;;7373164;19;20022;-64
2023/02/27 06:24:15;;;;;;;11.93;5.43;;;-2.30;99.90;;;;;;7370075;19;20030;-63
2023/02/27 06:26:42;;;;;;;9.98;4.60;;;-2.30;99.90;;;;;;7373892;19;20045;-62
2023/02/27 06:29:08;;;;;;;9.13;4.10;;;-2.30;99.90;;;;;;7371691;19;20556;-63
2023/02/27 06:31:35;;;;;;;8.63;4.38;;;-2.30;99.90;;;;;;7373398;19;20792;-64
2023/02/27 06:34:06;;;;;;;7.35;3.75;;;-2.40;99.90;;;;;;7366849;19;20022;-63
2023/02/27 06:36:33;;;;;;;9.85;3.90;;;-2.40;99.90;;;;;;7374479;19;20443;-64
2023/02/27 06:38:59;;;;;;;7.72;3.83;;;-2.40;99.90;;;;;;7366284;19;20117;-63
2023/02/27 06:41:26;;;;;;;12.65;4.45;;;-2.40;99.90;;;;;;7369045;19;20011;-63
2023/02/27 06:43:52;;;;;;;6.20;3.72;;;-2.40;99.90;;;;;;7371080;19;20771;-64
2023/02/27 06:46:19;;;;;;;10.13;4.43;;;-2.40;99.90;;;;;;7369768;19;20044;-64
2023/02/27 06:48:46;;;;;;;11.18;4.72;;;-2.40;99.90;;;;;;7370346;19;20022;-64
2023/02/27 06:51:12;;;;;;;9.05;4.80;;;-2.40;99.90;;;;;;7371971;19;20014;-64
2023/02/27 06:53:38;;;;;;;10.07;4.25;;;-2.30;99.90;;;;;;7371086;19;20476;-65
2023/02/27 06:56:05;;;;;;;9.82;4.20;;;-2.30;99.90;;;;;;7371181;19;20034;-63
2023/02/27 06:58:31;;;;;;;9.73;4.00;;;-2.30;99.90;;;;;;7373307;19;20486;-64
2023/02/27 07:00:59;;;;;;;7.25;4.65;;;-2.30;99.90;;;;;;7365900;19;20022;-62
2023/02/27 07:03:27;;;;;;;7.05;4.40;;;-2.30;99.90;;;;;;7371743;19;20036;-61
2023/02/27 07:05:53;;;;;;;7.43;3.83;;;-2.20;99.90;;;;;;7372945;19;20045;-61
2023/02/27 07:08:19;;;;;;;8.18;4.47;;;-2.20;99.90;;;;;;7371466;19;20021;-62
2023/02/27 07:10:47;;;;;;;9.65;4.35;;;-2.20;99.90;;;;;;7373632;19;20015;-61
2023/02/27 07:13:15;;;;;;;8.98;4.85;;;-2.10;99.90;;;;;;7371316;19;20018;-64
2023/02/27 07:15:43;;;;;;;14.23;5.97;;;-2.00;99.90;;;;;;7370194;19;20022;-61
2023/02/27 07:18:10;;;;;;;13.93;5.80;;;-1.90;99.90;;;;;;7371084;19;20022;-63
2023/02/27 07:20:36;;;;;;;10.95;5.95;;;-1.80;99.90;;;;;;7371951;19;20019;-61
2023/02/27 07:23:03;;;;;;;10.68;5.93;;;-1.70;99.90;;;;;;7370936;19;20486;-61
2023/02/27 07:25:29;;;;;;;14.38;6.18;;;-1.50;99.90;;;;;;7375108;19;20632;-62
2023/02/27 07:27:56;;;;;;;10.93;6.88;;;-1.40;99.90;;;;;;7369235;19;20022;-64
2023/02/27 07:30:22;;;;;;;11.20;6.53;;;-1.30;99.90;;;;;;7373385;19;20448;-62
2023/02/27 07:32:57;;;;;;;12.60;6.30;;;-1.10;99.90;;;;;;7372677;19;20023;-62
2023/02/27 07:35:25;;;;;;;7.72;5.50;;;-0.90;99.90;;;;;;7371697;19;20014;-62
2023/02/27 07:37:52;;;;;;;9.95;5.55;;;-0.80;99.90;;;;;;7367017;19;20015;-64
2023/02/27 07:40:18;;;;;;;10.80;5.50;;;-0.60;99.90;;;;;;7375422;19;20494;-64
2023/02/27 07:42:47;;;;;;;11.50;5.28;;;-0.50;99.90;;;;;;7366549;19;20516;-64
2023/02/27 07:45:17;;;;;;;9.23;4.80;;;-0.30;99.90;;;;;;7375541;19;20018;-64
2023/02/27 07:47:44;;;;;;;12.45;4.90;;;-0.20;99.90;;;;;;7373462;19;20015;-63
2023/02/27 07:50:12;;;;;;;11.13;5.20;;;0.00;99.90;;;;;;7370901;19;20021;-64
2023/02/27 07:52:42;;;;;;;10.70;5.22;;;0.10;99.90;;;;;;7370494;19;20022;-62
2023/02/27 07:55:11;;;;;;;8.70;5.22;;;0.20;99.90;;;;;;7373252;19;20018;-62
2023/02/27 07:57:37;;;;;;;8.98;4.78;;;0.30;99.90;;;;;;7369482;19;20018;-63
2023/02/27 08:00:06;;;;;;;9.15;4.50;;;0.30;99.90;;;;;;7368713;19;20026;-63
2023/02/27 08:02:38;;;;;;;11.77;5.13;;;0.40;99.90;;;;;;7370620;19;20660;-60
2023/02/27 08:05:06;;;;;;;10.90;4.68;;;0.50;99.90;;;;;;7369297;19;20136;-62
2023/02/27 08:07:33;;;;;;;10.27;4.70;;;0.60;99.90;;;;;;7366675;19;20021;-63
2023/02/27 08:09:59;;;;;;;12.90;5.25;;;0.70;99.90;;;;;;7382212;19;20060;-63
2023/02/27 08:12:25;;;;;;;11.88;5.60;;;0.80;99.90;;;;;;7382006;19;20515;-61
2023/02/27 08:14:52;;;;;;;11.45;5.65;;;0.80;99.90;;;;;;7382316;19;20023;-61
2023/02/27 08:17:18;;;;;;;10.60;4.85;;;0.90;99.90;;;;;;7384865;19;20618;-62
2023/02/27 08:19:49;;;;;;;10.43;4.95;;;1.00;99.90;;;;;;7386364;19;20125;-61
2023/02/27 08:22:15;;;;;;;10.35;5.18;;;1.10;99.90;;;;;;7384801;19;20302;-61
2023/02/27 08:24:42;;;;;;;14.65;5.07;;;1.20;99.90;;;;;;7385318;19;20021;-63
2023/02/27 08:27:08;;;;;;;12.20;5.07;;;1.20;99.90;;;;;;7383955;19;20037;-64
2023/02/27 08:29:35;;;;;;;9.00;4.50;;;1.30;99.90;;;;;;7383459;19;20936;-64
2023/02/27 08:32:01;;;;;;;9.25;4.90;;;1.30;99.90;;;;;;7380855;19;20770;-64
2023/02/27 08:34:29;;;;;;;13.55;5.10;;;1.40;99.90;;;;;;7385215;19;20470;-64
2023/02/27 08:36:55;;;;;;;10.02;3.97;;;1.50;99.90;;;;;;7383001;19;20094;-66
2023/02/27 08:39:23;;;;;;;11.95;4.50;;;1.60;99.90;;;;;;7384884;19;20026;-65
2023/02/27 08:41:51;;;;;;;10.70;4.50;;;1.70;99.90;;;;;;7385082;19;20018;-64
2023/02/27 08:44:20;;;;;;;8.75;4.22;;;1.90;99.90;;;;;;7381946;19;20780;-65
2023/02/27 08:46:49;;;;;;;8.98;3.88;;;1.90;99.90;;;;;;7383122;19;20019;-65
2023/02/27 08:49:16;;;;;;;12.70;4.65;;;2.00;99.90;;;;;;7380990;19;20019;-65
2023/02/27 08:51:42;;;;;;;9.82;3.80;;;2.20;99.90;;;;;;7379429;19;20124;-71
2023/02/27 08:54:09;;;;;;;7.25;4.00;;;2.30;99.90;;;;;;7383168;19;20090;-71
2023/02/27 08:56:35;;;;;;;10.38;3.85;;;2.50;99.90;;;;;;7383357;19;21049;-71
2023/02/27 08:59:01;;;;;;;12.05;4.18;;;2.70;99.90;;;;;;7385968;19;20521;-71
2023/02/27 09:01:33;;;;;;;15.10;4.22;;;2.90;99.90;;;;;;7384877;19;20014;-71
2023/02/27 09:04:01;;;;;;;10.90;3.55;;;3.10;99.90;;;;;;7388021;19;20019;-71
2023/02/27 09:06:29;;;;;;;9.80;3.72;;;3.30;99.90;;;;;;7382142;19;20766;-71
2023/02/27 09:08:57;;;;;;;9.20;3.67;;;3.70;99.90;;;;;;7379904;19;20028;-71
2023/02/27 09:11:24;;;;;;;9.57;4.13;;;4.00;99.90;;;;;;7383062;19;20353;-70
2023/02/27 09:13:51;;;;;;;10.93;4.72;;;4.30;99.90;;;;;;7380155;19;20021;-70
2023/02/27 09:16:19;;;;;;;8.25;4.43;;;4.60;99.90;;;;;;7383770;19;20019;-70
2023/02/27 09:18:46;;;;;;;10.00;4.72;;;4.70;99.90;;;;;;7386294;19;20019;-70
2023/02/27 09:21:13;;;;;;;10.85;4.93;;;4.80;99.90;;;;;;7377036;19;20022;-70
2023/02/27 09:23:39;;;;;;;12.38;4.82;;;4.80;99.90;;;;;;7377370;19;20474;-70
2023/02/27 09:26:08;;;;;;;7.25;3.55;;;4.90;99.90;;;;;;7376568;19;20370;-70
2023/02/27 09:28:35;;;;;;;7.53;3.28;;;5.00;99.90;;;;;;7376200;19;20015;-70
2023/02/27 09:31:04;;;;;;;7.70;3.47;;;5.10;99.90;;;;;;7376722;19;20019;-69
2023/02/27 09:33:37;;;;;;;8.40;3.15;;;5.20;99.90;;;;;;7375767;19;20359;-69
2023/02/27 09:36:05;;;;;;;9.13;3.20;;;5.20;99.90;;;;;;7377913;19;20478;-69
2023/02/27 09:38:52;;;;;;;8.48;2.65;;;5.40;99.90;;;;;;7374090;19;20014;-70
2023/02/27 09:41:50;;;;;;;7.43;3.30;;;5.40;99.90;;;;;;7375602;19;20023;-69
2023/02/27 09:44:43;;;;;;;8.82;3.03;;;5.50;99.90;;;;;;7380874;19;20473;-71
2023/02/27 09:47:38;;;;;;;8.40;3.15;;;5.70;99.90;;;;;;7376289;19;20042;-71
2023/02/27 09:50:09;;;;;;;8.88;4.32;;;5.90;99.90;;;;;;7374941;19;20122;-72
2023/02/27 09:52:36;;;;;;;13.70;5.35;;;6.20;99.90;;;;;;7380978;19;20037;-71
2023/02/27 09:55:20;;;;;;;8.73;3.15;;;6.40;99.90;;;;;;7384813;19;20031;-71
2023/02/27 09:57:55;;;;;;;13.77;7.55;;;6.70;99.90;;;;;;7379920;19;20851;-71
2023/02/27 10:00:51;;;;;;;10.93;4.60;;;7.10;99.90;;;;;;7382762;19;20022;-70
2023/02/27 10:03:37;;;;;;;11.05;3.75;;;8.20;99.90;;;;;;7373769;19;20014;-69
2023/02/27 10:06:24;;;;;;;7.95;2.70;;;9.30;99.90;;;;;;7374113;19;20030;-69
2023/02/27 10:09:18;;;;;;;13.93;7.38;;;9.90;99.90;;;;;;7375159;19;20019;-70
2023/02/27 10:12:10;;;;;;;8.48;3.63;;;10.40;99.90;;;;;;7378831;19;20014;-70
2023/02/27 10:14:52;;;;;;;7.88;4.32;;;10.60;99.90;;;;;;7375867;19;20014;-69
2023/02/27 10:17:29;;;;;;;8.40;4.60;;;10.60;99.90;;;;;;7373710;19;20018;-69
2023/02/27 10:19:57;;;;;;;7.32;4.18;;;10.90;99.90;;;;;;7384692;19;20022;-72
2023/02/27 10:22:39;;;;;;;13.55;5.93;;;10.90;99.90;;;;;;7379716;19;20014;-69
2023/02/27 10:25:17;;;;;;;9.70;4.68;;;11.00;99.90;;;;;;7373891;19;20018;-69
2023/02/27 10:27:47;;;;;;;12.35;5.82;;;11.80;99.90;;;;;;7386512;19;20031;-71
2023/02/27 10:30:24;;;;;;;10.25;4.53;;;12.40;97.60;;;;;;7384460;19;20027;-71
2023/02/27 10:33:16;;;;;;;7.25;2.42;;;12.40;77.60;;;;;;7390237;19;20620;-71
2023/02/27 10:35:44;;;;;;;9.02;5.43;;;12.50;77.60;;;;;;7389135;19;20100;-71
2023/02/27 10:38:18;;;;;;;7.65;3.92;;;12.90;76.90;;;;;;7378828;19;20010;-68
2023/02/27 10:40:47;;;;;;;7.88;2.70;;;13.20;69.50;;;;;;7382119;19;20022;-71
2023/02/27 10:43:20;;;;;;;6.63;2.67;;;13.70;75.80;;;;;;7373950;19;21171;-68
2023/02/27 10:45:47;;;;;;;7.35;2.42;;;13.50;67.60;;;;;;7374034;19;20081;-68
2023/02/27 10:48:19;;;;;;;6.22;3.45;;;13.90;68.60;;;;;;7382567;19;20047;-71
2023/02/27 10:50:50;;;;;;;6.65;3.35;;;13.60;64.90;;;;;;7377527;19;20528;-68
2023/02/27 10:53:27;;;;;;;4.63;2.30;;;14.50;65.20;;;;;;7372909;19;20022;-68
2023/02/27 10:56:12;;;;;;;7.78;3.40;;;14.10;62.20;;;;;;7374182;19;20656;-68
2023/02/27 10:58:39;;;;;;;4.82;2.55;;;13.60;62.40;;;;;;7378446;19;20018;-68
2023/02/27 11:01:07;;;;;;;6.00;2.30;;;13.50;65.30;;;;;;7377144;19;20011;-70
2023/02/27 11:03:41;;;;;;;3.78;1.92;;;13.80;63.00;;;;;;7384942;19;20646;-70
2023/02/27 11:06:19;;;;;;;5.68;1.85;;;13.50;60.80;;;;;;7389075;19;20015;-70
2023/02/27 11:09:09;;;;;;;8.35;3.75;;;13.80;59.30;;;;;;7388937;19;20104;-70
2023/02/27 11:11:41;;;;;;;6.45;2.33;;;14.20;59.10;;;;;;7389309;19;20014;-71
2023/02/27 11:14:34;;;;;;;4.82;2.35;;;14.30;60.50;;;;;;7385438;19;20382;-71
2023/02/27 11:17:02;;;;;;;2.95;1.63;;;14.50;55.10;;;;;;7387724;19;20018;-70
2023/02/27 11:19:31;;;;;;;2.05;0.70;;;14.60;55.30;;;;;;7389200;19;20522;-70
2023/02/27 11:22:11;;;;;;;2.83;1.52;;;13.90;52.90;;;;;;7384290;19;20094;-70
2023/02/27 11:24:40;;;;;;;3.33;1.50;;;14.00;54.80;;;;;;7385491;19;20054;-69
2023/02/27 11:27:20;;;;;;;3.17;1.00;;;13.90;52.90;;;;;;7384876;19;20605;-69
2023/02/27 11:29:57;;;;;;;3.05;0.82;;;13.90;53.90;;;;;;7386695;19;20359;-69
2023/02/27 11:32:30;;;;;;;4.88;2.25;;;13.20;53.70;;;;;;7384246;19;20014;-69
2023/02/27 11:34:59;;;;;;;3.40;1.17;;;12.30;55.30;;;;;;7373505;19;20014;-67
2023/02/27 11:37:34;;;;;;;5.55;2.20;;;11.90;57.20;;;;;;7376529;19;20433;-67
2023/02/27 11:40:11;;;;;;;3.50;1.27;;;11.70;57.40;;;;;;7372747;19;20392;-67
2023/02/27 11:42:44;;;;;;;3.17;0.93;;;11.60;58.60;;;;;;7367943;19;20014;-66
2023/02/27 11:45:20;;;;;;;4.68;1.40;;;11.20;59.30;;;;;;7367947;19;20830;-67
2023/02/27 11:48:01;;;;;;;6.63;2.20;;;10.90;60.10;;;;;;7371680;19;20920;-67
2023/02/27 11:50:47;;;;;;;4.57;2.05;;;10.50;61.70;;;;;;7372686;19;20018;-66
2023/02/27 11:53:44;;;;;;;2.90;0.95;;;10.20;63.30;;;;;;7368693;19;20039;-66
2023/02/27 11:56:51;;;;;;;3.30;1.13;;;9.70;63.40;;;;;;7370786;19;20022;-66
2023/02/27 11:59:33;;;;;;;4.78;1.38;;;9.70;65.40;;;;;;7372134;19;20109;-67
2023/02/27 12:02:12;;;;;;;3.85;1.55;;;9.90;66.50;;;;;;7371159;19;20011;-66
2023/02/27 12:04:49;;;;;;;2.50;1.10;;;10.10;68.10;;;;;;7369759;19;20077;-66
2023/02/27 12:07:19;;;;;;;4.18;1.30;;;10.50;67.20;;;;;;7372167;19;20018;-67
2023/02/27 12:10:06;;;;;;;2.97;0.98;;;10.70;65.60;;;;;;7370387;19;20014;-67
2023/02/27 12:12:44;;;;;;;3.85;1.77;;;10.40;65.00;;;;;;7371842;19;20669;-67
2023/02/27 12:15:30;;;;;;;2.85;1.00;;;10.10;66.80;;;;;;7370868;19;20455;-67
2023/02/27 12:18:02;;;;;;;3.60;1.27;;;9.70;70.40;;;;;;7368034;19;20045;-67
2023/02/27 12:20:29;;;;;;;2.53;0.77;;;10.50;72.10;;;;;;7369957;19;20038;-67
2023/02/27 12:22:55;;;;;;;4.68;1.05;;;11.30;71.80;;;;;;7370601;19;20015;-67
2023/02/27 12:25:30;;;;;;;3.42;1.38;;;11.10;69.10;;;;;;7370575;19;20019;-66
2023/02/27 12:28:02;;;;;;;2.80;1.10;;;10.70;68.80;;;;;;7370568;19;20046;-67
2023/02/27 12:30:37;;;;;;;3.13;1.40;;;10.00;70.80;;;;;;7369807;19;20813;-67
2023/02/27 12:33:22;;;;;;;3.88;1.52;;;9.80;71.60;;;;;;7370248;19;20014;-67
2023/02/27 12:35:59;;;;;;;3.88;1.20;;;9.50;73.70;;;;;;7365980;19;20081;-67
2023/02/27 12:38:26;;;;;;;2.70;1.02;;;9.90;74.40;;;;;;7369141;19;20018;-67
2023/02/27 12:41:04;;;;;;;3.20;1.65;;;10.00;72.50;;;;;;7368665;19;20015;-67
2023/02/27 12:44:05;;;;;;;3.53;1.17;;;10.30;69.90;;;;;;7369572;19;20011;-67
2023/02/27 12:46:46;;;;;;;3.60;1.20;;;10.20;69.70;;;;;;7368647;19;20774;-67
2023/02/27 12:49:21;;;;;;;4.60;1.00;;;10.30;66.30;;;;;;7370703;19;20471;-68
2023/02/27 12:52:03;;;;;;;3.60;1.85;;;10.40;68.00;;;;;;7373839;19;20603;-68
2023/02/27 12:54:47;;;;;;;4.38;1.65;;;10.10;66.60;;;;;;7369582;19;20045;-67
2023/02/27 12:57:29;;;;;;;6.43;1.60;;;9.80;67.00;;;;;;7375708;19;20029;-69
2023/02/27 13:00:18;;;;;;;3.00;1.20;;;9.90;71.20;;;;;;7376708;19;20621;-68
2023/02/27 13:03:02;;;;;;;4.50;1.35;;;9.60;70.10;;;;;;7379763;19;20014;-68
2023/02/27 13:05:38;;;;;;;3.03;1.00;;;9.50;69.60;;;;;;7377126;19;20015;-68
2023/02/27 13:08:23;;;;;;;2.72;1.00;;;11.20;68.50;;;;;;7378389;19;20058;-67
2023/02/27 13:11:28;;;;;;;1.58;0.80;;;11.80;59.20;;;;;;7376085;19;20025;-67
2023/02/27 13:13:58;;;;;;;4.22;1.20;;;12.50;58.70;;;;;;7375082;19;20572;-67
2023/02/27 13:16:42;;;;;;;1.52;0.70;;;14.00;58.00;;;;;;7375917;19;20049;-67
2023/02/27 13:19:14;;;;;;;3.05;1.10;;;14.60;55.40;;;;;;7378335;19;20528;-67
2023/02/27 13:21:54;;;;;;;2.60;1.02;;;15.10;53.10;;;;;;7377627;19;20655;-67
2023/02/27 13:24:32;;;;;;;3.25;1.10;;;15.20;51.80;;;;;;7372727;19;20366;-68